Cherry Hill, NJ (08002)

8:35 AM EDT on August 26, 2016 (GMT -0400)
Hollis Avenue | | Change Station
Active Advisory: Air Quality Alert

Elev 62 ft 39.93 °N, 75.02 °W | Updated 2 minutes ago

Partly Cloudy
Partly Cloudy
74.8 °F
Feels Like 72 °F
N
1.2
Wind Variable Wind from WSW
Gusts 3.1 mph

Today
High -- | Low -- °F
--% Chance of Precip.
Yesterday
High -- | Low -- °F
Precip. -- in
Pressure 30.02 in
Visibility 10.0 miles
Clouds Few 8000 ft
Heat Index 72 °F
Dew Point 74 °F
Humidity 97%
Rainfall 0.00 in
Snow Depth Not available.
6:22 AM 7:40 PM
Waning Crescent, 35% visible
METAR KVAY 261154Z AUTO 24005KT 10SM FEW080 24/22 A3002 RMK AO2 SLP164 T02440222 10244 20217 51007
Pressure 30.02 in
Visibility 10.0 miles
Clouds Few 8000 ft
Heat Index 72 °F
Dew Point 74 °F
Humidity 97%
Rainfall 0.00 in
Snow Depth Not available.
6:22 AM 7:40 PM
Waning Crescent, 35% visible
METAR KVAY 261154Z AUTO 24005KT 10SM FEW080 24/22 A3002 RMK AO2 SLP164 T02440222 10244 20217 51007

10-Day Weather Forecast

Almanac

Astronomy

Aug. 26, 2016 Rise Set
Actual Time
Civil Twilight
Nautical Twilight
Astronomical Twilight
Moon
Length of Visible Light
Length of Day
Tomorrow will be .
, % of the Moon is Illuminated

Today's Extremes

State Highs State Lows

Community

WunderPhotos

Upload Photos

1,935,080 photos uploaded!

WunderBlog® & News

Nearby

Air Quality

  Air Quality AQ Index Pollutant
Not available.

Snow Depth

Station Depth Elevation

Earthquake Activity

City Distance Mag. Time & Date
Minimum magnitude displayed is 2.5.

Coastal Water Temperatures

Place Temperature

Stations

Nearby Weather Stations

Station Location Temp. Windchill Dew Point Humidity Wind Precip. Elev Updated Type
                   

Watches & Warnings

Air Quality Alert
Issued: National Weather Service

nnnn


hours.

Nnnn